Time;durP1;ratioP1;P1;durP2;ratioP2;P2;SDS_P1;SDS_P2;PMS_P1;PMS_P2;Temp;Humidity;BMP_temperature;BMP_pressure;BME280_temperature;BME280_humidity;BME280_pressure;Samples;Min_cycle;Max_cycle;Signal;HPM_P1;HPM_P2
2021/10/07 00:00:41;;;;;;;4.90;2.37;;;12.60;99.90;;;;;;5024862;28;20782;-69
2021/10/07 00:03:07;;;;;;;2.70;2.10;;;12.50;99.90;;;;;;5021174;28;20660;-69
2021/10/07 00:05:33;;;;;;;8.60;2.60;;;12.60;99.90;;;;;;5023298;28;20868;-69
2021/10/07 00:07:58;;;;;;;4.70;2.50;;;12.60;99.90;;;;;;5023726;28;20762;-69
2021/10/07 00:10:25;;;;;;;3.70;2.47;;;12.60;99.90;;;;;;5021600;28;20255;-69
2021/10/07 00:12:51;;;;;;;6.40;2.87;;;12.60;99.90;;;;;;5022004;28;20691;-69
2021/10/07 00:15:16;;;;;;;4.60;2.70;;;12.60;99.90;;;;;;5022771;28;20471;-69
2021/10/07 00:17:42;;;;;;;3.53;2.73;;;12.60;99.90;;;;;;5019343;28;20463;-70
2021/10/07 00:20:10;;;;;;;4.00;2.30;;;12.60;99.90;;;;;;5021973;28;20231;-69
2021/10/07 00:22:38;;;;;;;4.03;2.13;;;12.60;99.90;;;;;;5009927;28;20180;-69
2021/10/07 00:25:09;;;;;;;3.10;2.23;;;12.60;99.90;;;;;;5021463;28;20428;-68
2021/10/07 00:27:35;;;;;;;3.93;2.53;;;12.50;99.90;;;;;;5005524;28;20985;-69
2021/10/07 00:30:06;;;;;;;7.70;2.60;;;12.50;99.90;;;;;;5022155;28;20412;-70
2021/10/07 00:32:36;;;;;;;3.70;2.10;;;12.50;99.90;;;;;;5022364;28;20963;-70
2021/10/07 00:40:11;;;;;;;11.13;2.80;;;12.40;99.90;;;;;;5021961;28;20190;-70
2021/10/07 00:42:37;;;;;;;4.70;2.40;;;12.40;99.90;;;;;;5021410;28;20436;-69
2021/10/07 00:45:04;;;;;;;4.83;2.40;;;12.40;99.90;;;;;;5023011;28;20572;-69
2021/10/07 00:47:30;;;;;;;4.43;2.60;;;12.40;99.90;;;;;;5019092;28;20189;-70
2021/10/07 00:49:55;;;;;;;3.70;2.47;;;12.30;99.90;;;;;;5023098;28;20485;-69
2021/10/07 00:52:21;;;;;;;3.53;2.40;;;12.30;99.90;;;;;;5023693;28;20188;-70
2021/10/07 00:54:50;;;;;;;4.57;2.10;;;12.30;99.90;;;;;;5023227;28;20189;-69
2021/10/07 00:57:19;;;;;;;4.13;2.87;;;12.30;99.90;;;;;;5021731;28;20201;-69
2021/10/07 00:59:49;;;;;;;4.67;2.77;;;12.30;99.90;;;;;;5024961;28;20514;-69
2021/10/07 01:02:15;;;;;;;3.47;2.77;;;12.40;99.90;;;;;;5024856;28;20420;-70
2021/10/07 01:04:42;;;;;;;6.10;2.50;;;12.60;99.90;;;;;;5025308;28;20437;-69
2021/10/07 01:07:08;;;;;;;3.67;2.70;;;12.50;99.90;;;;;;5009742;28;20954;-69
2021/10/07 01:09:34;;;;;;;3.30;2.43;;;12.50;99.90;;;;;;5028049;28;20453;-69
2021/10/07 01:12:02;;;;;;;3.77;2.67;;;12.40;99.90;;;;;;5024294;28;20436;-69
2021/10/07 01:14:47;;;;;;;3.60;2.67;;;12.40;99.90;;;;;;5023374;28;20457;-69
2021/10/07 01:17:21;;;;;;;3.37;2.77;;;12.30;99.90;;;;;;5027369;28;20470;-70
2021/10/07 01:19:53;;;;;;;8.77;4.90;;;12.30;99.90;;;;;;5025004;28;21019;-70
2021/10/07 01:22:20;;;;;;;3.30;2.40;;;12.30;99.90;;;;;;5026785;28;20534;-69
2021/10/07 01:24:47;;;;;;;7.13;2.93;;;12.30;99.90;;;;;;5027914;28;20469;-69
2021/10/07 01:27:13;;;;;;;7.67;2.73;;;12.30;99.90;;;;;;5022572;28;20946;-69
2021/10/07 01:29:40;;;;;;;4.30;3.00;;;12.40;99.90;;;;;;5026614;28;20881;-69
2021/10/07 01:32:07;;;;;;;5.73;3.00;;;12.40;99.90;;;;;;5025328;28;20478;-70
2021/10/07 01:34:33;;;;;;;6.43;2.97;;;12.40;99.90;;;;;;5023415;28;20427;-69
2021/10/07 01:36:59;;;;;;;6.40;3.17;;;12.40;99.90;;;;;;5003723;28;20473;-69
2021/10/07 01:39:25;;;;;;;8.00;2.60;;;12.30;99.90;;;;;;5027353;28;20877;-69
2021/10/07 01:41:51;;;;;;;5.43;2.93;;;12.40;99.90;;;;;;5021367;28;20534;-69
2021/10/07 01:44:19;;;;;;;4.10;2.50;;;12.50;99.90;;;;;;5024639;28;20191;-69
2021/10/07 01:46:45;;;;;;;3.63;2.97;;;12.50;99.90;;;;;;5026721;28;20411;-69
2021/10/07 01:49:11;;;;;;;6.27;2.80;;;12.50;99.90;;;;;;5023592;28;20810;-69
2021/10/07 01:51:37;;;;;;;4.50;3.00;;;12.50;99.90;;;;;;5025090;28;20981;-70
2021/10/07 01:54:04;;;;;;;2.73;2.47;;;12.50;99.90;;;;;;5027407;28;20798;-69
2021/10/07 01:56:31;;;;;;;4.80;3.10;;;12.40;99.90;;;;;;5022530;28;20467;-69
2021/10/07 01:58:57;;;;;;;3.10;2.80;;;12.30;99.90;;;;;;5025846;28;20439;-69
2021/10/07 02:01:24;;;;;;;5.07;2.90;;;12.20;99.90;;;;;;5025762;28;20973;-69
2021/10/07 02:03:50;;;;;;;5.73;3.00;;;12.10;99.90;;;;;;5023882;28;20438;-69
2021/10/07 02:06:16;;;;;;;10.47;2.90;;;12.10;99.90;;;;;;5026352;28;20438;-69
2021/10/07 02:08:42;;;;;;;7.50;3.77;;;12.00;99.90;;;;;;5031033;28;20434;-69
2021/10/07 02:11:09;;;;;;;3.40;3.10;;;12.00;99.90;;;;;;5022102;28;20576;-69
2021/10/07 02:13:34;;;;;;;6.87;3.33;;;12.10;99.90;;;;;;5026521;28;20537;-69
2021/10/07 02:16:00;;;;;;;4.43;3.43;;;12.20;99.90;;;;;;5024007;28;20910;-69
2021/10/07 02:18:26;;;;;;;4.37;3.73;;;12.20;99.90;;;;;;5024538;28;20287;-69
2021/10/07 02:20:52;;;;;;;6.27;3.00;;;12.20;99.90;;;;;;5026067;28;20216;-68
2021/10/07 02:23:18;;;;;;;7.30;3.33;;;12.20;99.90;;;;;;5025179;28;20507;-69
2021/10/07 02:25:45;;;;;;;6.43;3.60;;;12.10;99.90;;;;;;5024262;28;20919;-69
2021/10/07 02:28:13;;;;;;;5.57;3.73;;;12.20;99.90;;;;;;5023372;28;20243;-70
2021/10/07 02:30:40;;;;;;;5.87;3.43;;;12.20;99.90;;;;;;5026074;28;20453;-69
2021/10/07 02:33:06;;;;;;;4.30;4.00;;;12.10;99.90;;;;;;5028353;28;20458;-69
2021/10/07 02:35:32;;;;;;;4.33;3.37;;;12.30;99.90;;;;;;5024266;28;20497;-69
2021/10/07 02:37:57;;;;;;;7.40;4.63;;;12.30;99.90;;;;;;5021652;28;20445;-70
2021/10/07 02:40:23;;;;;;;6.90;3.57;;;12.30;99.90;;;;;;5024310;28;20266;-70
2021/10/07 02:42:49;;;;;;;5.37;3.70;;;12.20;99.90;;;;;;5023270;28;20601;-69
2021/10/07 02:45:16;;;;;;;8.27;4.17;;;12.20;99.90;;;;;;5023947;28;20881;-70
2021/10/07 02:47:43;;;;;;;6.20;3.80;;;12.20;99.90;;;;;;5024153;28;20228;-69
2021/10/07 02:50:10;;;;;;;14.23;3.90;;;12.30;99.90;;;;;;5021051;28;22101;-69
2021/10/07 02:52:36;;;;;;;12.70;4.63;;;12.30;99.90;;;;;;5022587;28;20885;-70
2021/10/07 02:55:03;;;;;;;9.60;4.30;;;12.30;99.90;;;;;;5023944;28;20422;-69
2021/10/07 02:57:29;;;;;;;4.73;3.93;;;12.30;99.90;;;;;;5022960;28;21373;-69
2021/10/07 02:59:54;;;;;;;7.73;3.80;;;12.30;99.90;;;;;;5024795;28;20440;-70
2021/10/07 03:02:20;;;;;;;11.43;4.47;;;12.20;99.90;;;;;;5025742;28;20566;-69
2021/10/07 03:04:46;;;;;;;7.87;3.80;;;12.30;99.90;;;;;;5021810;28;20693;-69
2021/10/07 03:07:11;;;;;;;5.53;4.70;;;12.50;99.90;;;;;;5025135;28;20189;-69
2021/10/07 03:09:40;;;;;;;7.17;4.47;;;12.30;99.90;;;;;;5023339;28;20213;-69
2021/10/07 03:12:07;;;;;;;4.40;3.70;;;12.20;99.90;;;;;;5021547;28;20224;-70
2021/10/07 03:14:34;;;;;;;10.63;3.60;;;12.40;99.90;;;;;;5026002;28;20411;-69
2021/10/07 03:16:59;;;;;;;6.77;4.03;;;12.40;99.90;;;;;;5021854;28;20472;-70
2021/10/07 03:19:26;;;;;;;6.53;4.90;;;12.50;99.90;;;;;;5021936;28;20446;-69
2021/10/07 03:21:51;;;;;;;5.53;3.83;;;12.30;99.90;;;;;;5026068;28;20220;-68
2021/10/07 03:24:17;;;;;;;4.03;3.53;;;12.40;99.90;;;;;;5021730;28;20789;-71
2021/10/07 03:26:42;;;;;;;6.43;3.80;;;12.40;99.90;;;;;;5021750;28;20219;-69
2021/10/07 03:29:08;;;;;;;5.43;4.20;;;12.30;99.90;;;;;;5023804;28;20236;-70
2021/10/07 03:31:34;;;;;;;6.73;4.30;;;12.40;99.90;;;;;;5023242;28;20200;-69
2021/10/07 03:33:59;;;;;;;7.23;3.80;;;12.40;99.90;;;;;;5026916;28;20666;-69
2021/10/07 03:36:25;;;;;;;5.17;3.93;;;12.50;99.90;;;;;;5002323;28;20219;-70
2021/10/07 03:38:51;;;;;;;7.73;4.00;;;12.40;99.90;;;;;;5022302;28;20600;-69
2021/10/07 03:41:17;;;;;;;3.17;2.93;;;12.40;99.90;;;;;;5020921;28;20435;-69
2021/10/07 03:43:43;;;;;;;10.13;4.20;;;12.40;99.90;;;;;;5003774;28;20241;-69
2021/10/07 03:46:08;;;;;;;4.00;3.60;;;12.40;99.90;;;;;;5026010;28;20436;-69
2021/10/07 03:48:34;;;;;;;6.70;3.70;;;12.30;99.90;;;;;;5023009;28;20215;-69
2021/10/07 03:51:00;;;;;;;4.00;3.60;;;12.30;99.90;;;;;;5019149;28;20641;-69
2021/10/07 03:53:27;;;;;;;6.87;3.50;;;12.30;99.90;;;;;;5024627;28;20203;-70
2021/10/07 03:55:53;;;;;;;4.07;3.23;;;12.30;99.90;;;;;;5022273;28;20212;-69
2021/10/07 03:58:19;;;;;;;5.03;3.00;;;12.30;99.90;;;;;;5021598;28;20809;-69
2021/10/07 04:00:44;;;;;;;3.60;3.30;;;12.20;99.90;;;;;;5023969;28;20554;-69
2021/10/07 04:03:10;;;;;;;3.30;3.00;;;12.20;99.90;;;;;;5021984;28;20261;-69
2021/10/07 04:05:35;;;;;;;9.47;3.47;;;12.10;99.90;;;;;;5021964;28;20192;-70
2021/10/07 04:08:04;;;;;;;7.50;4.00;;;12.10;99.90;;;;;;5021601;28;20207;-69
2021/10/07 04:10:32;;;;;;;3.87;3.47;;;12.00;99.90;;;;;;5023435;28;20191;-68
2021/10/07 04:12:58;;;;;;;6.90;3.17;;;12.10;99.90;;;;;;5025100;28;20446;-70
2021/10/07 04:15:24;;;;;;;5.90;3.60;;;12.10;99.90;;;;;;5022153;28;20459;-70
2021/10/07 04:17:49;;;;;;;6.73;4.00;;;12.20;99.90;;;;;;5019118;28;20765;-69
2021/10/07 04:20:15;;;;;;;4.57;3.70;;;12.20;99.90;;;;;;5024765;28;20180;-70
2021/10/07 04:22:41;;;;;;;4.43;3.27;;;12.10;99.90;;;;;;5023394;28;20192;-67
2021/10/07 04:25:07;;;;;;;4.30;3.67;;;12.00;99.90;;;;;;5022660;28;20246;-69
2021/10/07 04:27:33;;;;;;;7.03;4.57;;;11.90;99.90;;;;;;5025605;28;20180;-68
2021/10/07 04:30:00;;;;;;;4.40;3.90;;;11.90;99.90;;;;;;5020158;28;20442;-69
2021/10/07 04:32:26;;;;;;;5.07;4.23;;;11.90;99.90;;;;;;5024021;28;21003;-69
2021/10/07 04:34:51;;;;;;;12.67;4.57;;;11.80;99.90;;;;;;5028138;28;20514;-69
2021/10/07 04:37:17;;;;;;;8.80;4.47;;;11.80;99.90;;;;;;5028809;28;20614;-69
2021/10/07 04:39:43;;;;;;;9.17;4.73;;;11.80;99.90;;;;;;5012047;28;20191;-69
2021/10/07 04:42:08;;;;;;;8.57;4.30;;;11.80;99.90;;;;;;5035259;28;20617;-69
2021/10/07 04:44:34;;;;;;;8.23;4.37;;;11.80;99.90;;;;;;5023671;28;20611;-70
2021/10/07 04:47:00;;;;;;;6.90;5.17;;;11.90;99.90;;;;;;5029313;28;20260;-69
2021/10/07 04:49:25;;;;;;;5.67;5.17;;;11.90;99.90;;;;;;5030030;28;20591;-69
2021/10/07 04:51:51;;;;;;;6.43;5.13;;;11.90;99.90;;;;;;5029329;28;20683;-69
2021/10/07 04:54:16;;;;;;;6.90;4.50;;;11.90;99.90;;;;;;5028072;28;20267;-70
2021/10/07 04:56:42;;;;;;;6.63;4.63;;;12.00;99.90;;;;;;5027833;28;20619;-70
2021/10/07 04:59:08;;;;;;;7.73;5.10;;;12.10;99.90;;;;;;5029081;28;20200;-70
2021/10/07 05:01:33;;;;;;;6.90;5.80;;;12.20;99.90;;;;;;5029212;28;20234;-69
2021/10/07 05:03:59;;;;;;;6.80;4.97;;;12.20;99.90;;;;;;5027688;28;20201;-69
2021/10/07 05:06:25;;;;;;;11.33;5.50;;;12.30;99.90;;;;;;5027978;28;20223;-69
2021/10/07 05:08:51;;;;;;;9.27;5.63;;;12.30;99.90;;;;;;5029081;28;20553;-69
2021/10/07 05:11:16;;;;;;;5.43;4.77;;;12.30;99.90;;;;;;5029033;28;20197;-69
2021/10/07 05:13:42;;;;;;;12.63;5.10;;;12.30;99.90;;;;;;5031090;28;20204;-69
2021/10/07 05:16:08;;;;;;;9.10;5.00;;;12.20;99.90;;;;;;5027610;28;20208;-71
2021/10/07 05:18:33;;;;;;;7.07;4.73;;;12.20;99.90;;;;;;5027461;28;20282;-69
2021/10/07 05:20:59;;;;;;;8.20;5.70;;;12.30;99.90;;;;;;5027301;28;20209;-69
2021/10/07 05:23:25;;;;;;;6.53;4.87;;;12.30;99.90;;;;;;5028148;28;20242;-70
2021/10/07 05:25:50;;;;;;;8.63;5.53;;;12.50;99.90;;;;;;5027812;28;20454;-69
2021/10/07 05:28:16;;;;;;;7.70;4.93;;;12.40;99.90;;;;;;5029547;28;20203;-70
2021/10/07 05:30:42;;;;;;;6.17;5.30;;;12.30;99.90;;;;;;5028450;28;20591;-69
2021/10/07 05:33:07;;;;;;;6.13;5.10;;;12.20;99.90;;;;;;5029440;28;20631;-70
2021/10/07 05:35:33;;;;;;;6.77;5.40;;;12.30;99.90;;;;;;5030045;28;20208;-69
2021/10/07 05:37:59;;;;;;;5.97;5.30;;;12.40;99.90;;;;;;5027054;28;20267;-69
2021/10/07 05:40:25;;;;;;;6.03;5.43;;;12.40;99.90;;;;;;5028384;28;20192;-69
2021/10/07 05:42:51;;;;;;;7.77;5.10;;;12.40;99.90;;;;;;5030203;28;20601;-69
2021/10/07 05:45:17;;;;;;;11.77;5.63;;;12.20;99.90;;;;;;5023064;28;20432;-69
2021/10/07 05:47:43;;;;;;;12.53;6.10;;;12.10;99.90;;;;;;5024880;28;20326;-70
2021/10/07 05:50:11;;;;;;;10.30;6.30;;;12.10;99.90;;;;;;5026942;28;20692;-69
2021/10/07 05:52:36;;;;;;;8.37;6.13;;;12.20;99.90;;;;;;5027881;28;20905;-69
2021/10/07 05:55:04;;;;;;;8.70;5.77;;;12.30;99.90;;;;;;5024895;28;20420;-70
2021/10/07 05:57:29;;;;;;;6.47;5.87;;;12.20;99.90;;;;;;5022121;28;20578;-68
2021/10/07 05:59:55;;;;;;;9.53;6.43;;;12.20;99.90;;;;;;5026094;28;20435;-68
2021/10/07 06:02:20;;;;;;;10.03;6.53;;;12.20;99.90;;;;;;5025572;28;20282;-69
2021/10/07 06:04:46;;;;;;;7.77;5.50;;;12.30;99.90;;;;;;5022720;28;20193;-68
2021/10/07 06:07:12;;;;;;;7.20;5.13;;;12.30;99.90;;;;;;5025120;28;20176;-68
2021/10/07 06:09:37;;;;;;;7.47;6.00;;;12.50;99.90;;;;;;5024639;28;20306;-68
2021/10/07 06:12:04;;;;;;;10.10;5.83;;;12.50;99.90;;;;;;5024144;28;20270;-68
2021/10/07 06:14:30;;;;;;;12.70;7.87;;;12.50;99.90;;;;;;5029923;28;20446;-71
2021/10/07 06:16:56;;;;;;;7.30;5.83;;;12.50;99.90;;;;;;5024957;28;21013;-68
2021/10/07 06:19:24;;;;;;;9.00;6.53;;;12.60;99.90;;;;;;5024161;28;20225;-70
2021/10/07 06:21:51;;;;;;;9.47;6.50;;;12.60;99.90;;;;;;5023348;28;20287;-70
2021/10/07 06:24:17;;;;;;;8.47;6.07;;;12.60;99.90;;;;;;5022120;28;21017;-70
2021/10/07 06:26:43;;;;;;;9.10;5.83;;;12.60;99.90;;;;;;5025948;28;20455;-68
2021/10/07 06:29:09;;;;;;;6.97;6.37;;;12.50;99.90;;;;;;5024592;28;20496;-68
2021/10/07 06:31:35;;;;;;;8.83;6.00;;;12.70;99.90;;;;;;5023832;28;20462;-69
2021/10/07 06:34:02;;;;;;;7.10;5.90;;;12.60;99.90;;;;;;5025175;28;20440;-68
2021/10/07 06:36:27;;;;;;;8.40;5.00;;;12.70;99.90;;;;;;5021535;28;21017;-69
2021/10/07 06:38:53;;;;;;;6.30;5.53;;;13.00;99.90;;;;;;5021650;28;20738;-69
2021/10/07 06:41:19;;;;;;;6.40;5.40;;;13.10;99.90;;;;;;5012619;28;20196;-69
2021/10/07 06:43:45;;;;;;;7.47;5.90;;;13.00;99.90;;;;;;5023629;28;20228;-68
2021/10/07 06:46:11;;;;;;;5.60;5.00;;;13.00;99.90;;;;;;5023441;28;20232;-69
2021/10/07 06:48:37;;;;;;;5.90;5.30;;;13.00;99.90;;;;;;5026338;28;20450;-68
2021/10/07 06:51:09;;;;;;;7.53;5.70;;;13.10;99.90;;;;;;5023631;28;20424;-69
2021/10/07 06:53:34;;;;;;;10.23;5.67;;;13.00;99.90;;;;;;5004975;28;20623;-69
2021/10/07 06:56:00;;;;;;;8.40;5.20;;;13.10;99.90;;;;;;5023115;28;20491;-68
2021/10/07 06:58:25;;;;;;;6.17;5.50;;;13.20;99.90;;;;;;5022881;28;20627;-68
2021/10/07 07:00:51;;;;;;;6.03;5.17;;;13.10;99.90;;;;;;5024826;28;20287;-69
2021/10/07 07:03:17;;;;;;;8.10;5.77;;;13.20;99.90;;;;;;5025494;28;20220;-70
2021/10/07 07:05:42;;;;;;;9.00;5.60;;;13.10;99.90;;;;;;5021240;28;20249;-70
2021/10/07 07:08:08;;;;;;;8.07;5.63;;;13.20;99.90;;;;;;5026603;28;20217;-70
2021/10/07 07:10:33;;;;;;;7.50;4.90;;;13.30;99.90;;;;;;5023835;28;20224;-70
2021/10/07 07:13:05;;;;;;;7.20;4.90;;;13.20;99.90;;;;;;5024051;28;20607;-70
2021/10/07 07:15:31;;;;;;;7.90;4.97;;;13.50;99.90;;;;;;5007363;28;20626;-70
2021/10/07 07:17:57;;;;;;;10.10;5.53;;;13.50;99.90;;;;;;5023209;28;20707;-71
2021/10/07 07:20:23;;;;;;;8.47;5.40;;;13.40;99.90;;;;;;5007695;28;20442;-70
2021/10/07 07:22:50;;;;;;;5.90;4.50;;;13.50;99.90;;;;;;5026190;28;20525;-70
2021/10/07 07:25:16;;;;;;;5.10;4.60;;;13.50;99.90;;;;;;5021354;28;20431;-70
2021/10/07 07:27:43;;;;;;;9.70;6.37;;;13.60;99.90;;;;;;5020136;28;20471;-68
2021/10/07 07:30:09;;;;;;;9.40;6.00;;;13.70;99.90;;;;;;5020494;28;20648;-68
2021/10/07 07:32:34;;;;;;;5.80;4.93;;;13.40;99.90;;;;;;5020187;28;20452;-68
2021/10/07 07:35:00;;;;;;;10.17;6.00;;;13.40;99.90;;;;;;5006496;28;20949;-70
2021/10/07 07:37:26;;;;;;;7.70;5.53;;;13.40;99.90;;;;;;5024523;28;20223;-70
2021/10/07 07:39:51;;;;;;;6.30;5.70;;;13.40;99.90;;;;;;5021173;28;20201;-71
2021/10/07 07:42:17;;;;;;;11.47;6.57;;;13.40;99.90;;;;;;5023572;28;20272;-69
2021/10/07 07:44:43;;;;;;;8.33;7.00;;;13.20;99.90;;;;;;5021585;28;20493;-68
2021/10/07 07:47:09;;;;;;;7.80;5.97;;;13.00;99.90;;;;;;5022185;28;20206;-69
2021/10/07 07:49:35;;;;;;;11.40;5.50;;;13.20;99.90;;;;;;5025060;28;20262;-69
2021/10/07 07:52:00;;;;;;;11.97;7.07;;;13.20;99.90;;;;;;5021099;28;20447;-70
2021/10/07 07:54:26;;;;;;;7.93;7.07;;;13.30;99.90;;;;;;5022017;28;20226;-68
2021/10/07 07:56:52;;;;;;;7.40;6.20;;;13.40;99.90;;;;;;5023306;28;20265;-70
2021/10/07 07:59:17;;;;;;;9.07;7.33;;;13.40;99.90;;;;;;5025875;28;20567;-68
2021/10/07 08:01:43;;;;;;;12.17;7.40;;;13.60;99.90;;;;;;5023278;28;20607;-68
2021/10/07 08:04:09;;;;;;;7.37;6.57;;;13.70;99.90;;;;;;5022855;28;20242;-68
2021/10/07 08:06:36;;;;;;;8.57;6.50;;;13.60;99.90;;;;;;5023678;28;20219;-69
2021/10/07 08:09:04;;;;;;;8.73;6.83;;;13.40;99.90;;;;;;5020996;28;20224;-69
2021/10/07 08:11:31;;;;;;;7.50;6.80;;;13.50;99.90;;;;;;5021297;28;20823;-70
2021/10/07 08:13:58;;;;;;;9.83;7.73;;;13.50;99.90;;;;;;5021735;28;20565;-70
2021/10/07 08:16:26;;;;;;;7.70;6.90;;;13.40;99.90;;;;;;5021117;28;20983;-70
2021/10/07 08:18:52;;;;;;;11.77;6.77;;;13.40;99.90;;;;;;5023861;28;20470;-68
2021/10/07 08:21:18;;;;;;;9.30;6.87;;;13.30;99.90;;;;;;5024685;28;20528;-70
2021/10/07 08:23:44;;;;;;;7.70;6.93;;;13.40;99.90;;;;;;5024445;28;20453;-70
2021/10/07 08:26:11;;;;;;;18.10;7.67;;;13.30;99.90;;;;;;5020652;28;20485;-70
2021/10/07 08:28:37;;;;;;;8.97;8.07;;;13.40;99.90;;;;;;5023800;28;20223;-69
2021/10/07 08:31:03;;;;;;;9.03;7.43;;;13.60;99.90;;;;;;5021811;28;20923;-68
2021/10/07 08:33:29;;;;;;;11.20;8.17;;;13.50;99.90;;;;;;5021567;28;20455;-69
2021/10/07 08:35:55;;;;;;;8.63;7.73;;;13.60;99.90;;;;;;5021273;28;20477;-68
2021/10/07 08:38:21;;;;;;;8.47;6.87;;;13.60;99.90;;;;;;5025498;28;20235;-69
2021/10/07 08:40:47;;;;;;;12.43;7.90;;;13.70;99.90;;;;;;5024835;28;20242;-70
2021/10/07 08:43:12;;;;;;;12.60;8.00;;;13.80;99.90;;;;;;5023915;28;20648;-71
2021/10/07 08:45:38;;;;;;;10.97;7.87;;;13.80;99.90;;;;;;5021911;28;20439;-69
2021/10/07 08:48:04;;;;;;;12.23;9.17;;;13.60;99.90;;;;;;5022755;28;20224;-70
2021/10/07 08:50:30;;;;;;;15.40;7.00;;;13.60;99.90;;;;;;5024589;28;20578;-70
2021/10/07 08:52:55;;;;;;;12.10;7.47;;;13.80;99.90;;;;;;5021949;28;20228;-68
2021/10/07 08:55:21;;;;;;;8.23;5.93;;;14.00;99.90;;;;;;5021415;28;20180;-68
2021/10/07 08:57:47;;;;;;;10.70;6.87;;;14.10;99.90;;;;;;5021263;28;20856;-69
2021/10/07 09:00:14;;;;;;;10.50;6.63;;;14.00;99.90;;;;;;5021975;28;20670;-69
2021/10/07 09:02:41;;;;;;;8.47;6.33;;;14.20;99.90;;;;;;5023778;28;20201;-70
2021/10/07 09:05:15;;;;;;;11.13;7.60;;;14.00;99.90;;;;;;5022319;28;20448;-70
2021/10/07 09:08:04;;;;;;;9.80;7.27;;;14.10;99.90;;;;;;5021781;28;20428;-71
2021/10/07 09:10:56;;;;;;;10.00;6.87;;;14.10;99.90;;;;;;5023598;28;20443;-70
2021/10/07 09:13:27;;;;;;;8.27;6.53;;;14.20;99.90;;;;;;5021960;28;20447;-67
2021/10/07 09:15:57;;;;;;;8.53;7.20;;;14.50;99.90;;;;;;5018888;28;20613;-68
2021/10/07 09:18:25;;;;;;;14.80;10.90;;;14.80;99.90;;;;;;5022009;28;20820;-69
2021/10/07 09:20:53;;;;;;;7.10;6.40;;;14.60;99.90;;;;;;5027340;28;20446;-69
2021/10/07 09:23:28;;;;;;;12.07;7.20;;;14.40;99.90;;;;;;5026367;28;20455;-69
2021/10/07 09:26:12;;;;;;;8.57;6.93;;;14.30;99.90;;;;;;5023950;28;20816;-68
2021/10/07 09:29:07;;;;;;;7.87;7.00;;;14.60;99.90;;;;;;5023838;28;20997;-68
2021/10/07 09:31:34;;;;;;;8.67;7.40;;;14.50;99.90;;;;;;5011017;28;20825;-68
2021/10/07 09:34:06;;;;;;;11.70;6.80;;;14.60;99.90;;;;;;5023030;28;20813;-68
2021/10/07 09:36:33;;;;;;;7.27;6.53;;;14.80;99.90;;;;;;5027008;28;20481;-68
2021/10/07 09:39:02;;;;;;;8.07;6.40;;;14.90;99.90;;;;;;5023733;28;20451;-68
2021/10/07 09:41:30;;;;;;;8.27;7.50;;;14.90;99.90;;;;;;5030038;28;20814;-68
2021/10/07 09:44:00;;;;;;;12.13;6.67;;;15.00;99.90;;;;;;5024805;28;20995;-68
2021/10/07 09:46:50;;;;;;;7.80;6.43;;;15.10;99.90;;;;;;5025079;28;20805;-69
2021/10/07 09:49:17;;;;;;;8.27;6.40;;;15.40;99.90;;;;;;5022565;28;20508;-69
2021/10/07 09:51:50;;;;;;;9.13;6.97;;;15.60;99.90;;;;;;5024707;28;20434;-68
2021/10/07 09:54:20;;;;;;;6.30;5.70;;;15.70;99.90;;;;;;5009464;28;20447;-70
2021/10/07 09:57:00;;;;;;;6.50;5.90;;;15.80;99.90;;;;;;5024972;28;20581;-70
2021/10/07 09:59:28;;;;;;;6.47;5.70;;;15.90;99.90;;;;;;5025318;28;20443;-69
2021/10/07 10:01:55;;;;;;;6.40;5.60;;;15.70;99.90;;;;;;5021339;28;20621;-68
2021/10/07 10:04:23;;;;;;;6.77;5.10;;;15.80;99.90;;;;;;5027392;28;20514;-68
2021/10/07 10:06:48;;;;;;;8.47;5.60;;;16.10;99.90;;;;;;5024361;28;20439;-68
2021/10/07 10:09:14;;;;;;;7.17;6.17;;;16.10;99.90;;;;;;5023719;28;20534;-68
2021/10/07 10:11:43;;;;;;;6.57;5.93;;;16.10;99.90;;;;;;5026490;28;20271;-71
2021/10/07 10:14:09;;;;;;;6.67;5.80;;;15.70;99.90;;;;;;5025874;28;20299;-68
2021/10/07 10:16:36;;;;;;;6.20;5.60;;;15.80;99.90;;;;;;5022262;28;20518;-68
2021/10/07 10:19:04;;;;;;;7.40;6.70;;;15.70;99.90;;;;;;5023264;28;20439;-69
2021/10/07 10:21:37;;;;;;;7.10;6.23;;;15.90;99.90;;;;;;5023857;28;20416;-70
2021/10/07 10:24:04;;;;;;;7.27;6.57;;;16.10;99.90;;;;;;5019648;28;20486;-67
2021/10/07 10:26:31;;;;;;;7.13;5.97;;;15.80;99.90;;;;;;5023594;28;20440;-69
2021/10/07 10:28:56;;;;;;;7.57;6.50;;;15.90;99.90;;;;;;5023800;28;20458;-69
2021/10/07 10:31:33;;;;;;;7.23;6.33;;;16.10;99.90;;;;;;5023708;28;20447;-69
2021/10/07 10:34:08;;;;;;;5.93;5.43;;;16.20;99.90;;;;;;5028175;28;20668;-70
2021/10/07 10:36:56;;;;;;;7.60;5.47;;;16.30;99.90;;;;;;5023762;28;20827;-68
2021/10/07 10:39:29;;;;;;;9.13;5.80;;;16.40;99.90;;;;;;5019256;28;20458;-69
2021/10/07 10:42:02;;;;;;;7.60;5.83;;;16.60;99.90;;;;;;5024883;28;20534;-69
2021/10/07 10:44:28;;;;;;;6.87;6.17;;;16.70;99.90;;;;;;5027618;28;20497;-68
2021/10/07 10:47:07;;;;;;;7.43;6.10;;;16.80;99.90;;;;;;5022693;28;20494;-68
2021/10/07 10:49:53;;;;;;;7.27;6.03;;;16.90;99.90;;;;;;5025610;28;20208;-69
2021/10/07 10:52:23;;;;;;;5.50;5.00;;;17.00;99.90;;;;;;5022970;28;20461;-68
2021/10/07 10:54:51;;;;;;;5.50;5.00;;;16.90;99.90;;;;;;5023396;28;20481;-68
2021/10/07 10:57:25;;;;;;;9.07;6.00;;;17.10;99.90;;;;;;5024465;28;20485;-68
2021/10/07 11:00:03;;;;;;;5.50;5.00;;;17.20;99.90;;;;;;5023696;28;20414;-68
2021/10/07 11:02:29;;;;;;;6.80;5.10;;;17.40;99.90;;;;;;5024223;28;20435;-69
2021/10/07 11:04:56;;;;;;;5.80;5.13;;;17.50;99.90;;;;;;5023798;28;20432;-69
2021/10/07 11:07:36;;;;;;;6.10;4.73;;;17.50;99.90;;;;;;5023405;28;20208;-69
2021/10/07 11:10:04;;;;;;;6.13;4.70;;;17.60;99.90;;;;;;5021336;28;20482;-69
2021/10/07 11:12:40;;;;;;;8.07;5.33;;;17.80;99.90;;;;;;5028668;28;20431;-70
2021/10/07 11:15:07;;;;;;;6.57;4.20;;;17.80;99.90;;;;;;5023018;28;20443;-68
2021/10/07 11:17:33;;;;;;;10.83;5.30;;;17.80;99.90;;;;;;5020503;28;20483;-70
2021/10/07 11:19:58;;;;;;;4.93;4.43;;;17.90;99.90;;;;;;5024358;28;20415;-68
2021/10/07 11:22:25;;;;;;;4.47;4.07;;;18.00;99.90;;;;;;5021763;28;20603;-71
2021/10/07 11:24:54;;;;;;;5.43;4.40;;;18.00;99.90;;;;;;5020257;28;20567;-69
2021/10/07 11:27:39;;;;;;;5.90;4.00;;;18.20;99.90;;;;;;5028652;28;20426;-70
2021/10/07 11:30:09;;;;;;;5.73;4.57;;;18.30;99.90;;;;;;5003848;28;20955;-69
2021/10/07 11:32:35;;;;;;;3.70;3.40;;;18.30;99.90;;;;;;5022548;28;21470;-69
2021/10/07 11:35:11;;;;;;;4.40;3.80;;;18.20;99.90;;;;;;5024957;28;20434;-70
2021/10/07 11:37:52;;;;;;;4.00;3.60;;;18.10;99.90;;;;;;5020282;28;20471;-70
2021/10/07 11:40:36;;;;;;;4.17;3.77;;;18.10;99.90;;;;;;5025847;28;20850;-68
2021/10/07 11:43:06;;;;;;;4.07;3.73;;;18.20;99.90;;;;;;5024503;28;20416;-69
2021/10/07 11:45:43;;;;;;;5.03;4.40;;;18.30;99.90;;;;;;5022650;28;20530;-70
2021/10/07 11:48:09;;;;;;;5.30;3.60;;;18.40;99.90;;;;;;5022696;28;20474;-69
2021/10/07 11:50:39;;;;;;;5.00;4.50;;;18.50;99.90;;;;;;5022794;28;20422;-70
2021/10/07 11:53:06;;;;;;;3.63;3.33;;;18.90;99.90;;;;;;5020115;28;20887;-70
2021/10/07 11:55:31;;;;;;;4.00;3.53;;;19.30;99.90;;;;;;5022959;28;20959;-70
2021/10/07 11:58:00;;;;;;;5.87;3.07;;;20.10;99.90;;;;;;5023465;28;20438;-70
2021/10/07 12:00:32;;;;;;;3.73;2.83;;;22.70;99.90;;;;;;5023386;28;20298;-68
2021/10/07 12:03:15;;;;;;;3.13;2.83;;;25.90;99.90;;;;;;5023275;28;20434;-69
2021/10/07 12:05:42;;;;;;;3.13;2.93;;;29.10;99.90;;;;;;5031999;28;20407;-68
2021/10/07 12:08:12;;;;;;;5.47;3.03;;;31.30;94.60;;;;;;5029285;28;20473;-68
2021/10/07 12:10:46;;;;;;;3.10;2.60;;;32.70;85.50;;;;;;5022584;28;20511;-69
2021/10/07 12:13:21;;;;;;;3.17;2.97;;;31.60;78.90;;;;;;5023255;28;20449;-69
2021/10/07 12:15:51;;;;;;;3.50;3.20;;;29.70;76.50;;;;;;5023055;28;20475;-69
2021/10/07 12:18:17;;;;;;;3.20;2.90;;;28.60;80.70;;;;;;5020457;28;20458;-69
2021/10/07 12:20:58;;;;;;;3.20;2.90;;;28.90;81.80;;;;;;5021235;28;20493;-69
2021/10/07 12:23:24;;;;;;;3.10;2.90;;;29.70;77.40;;;;;;5025147;28;20425;-68
2021/10/07 12:25:58;;;;;;;2.97;2.67;;;30.30;74.90;;;;;;5023331;28;20431;-69
2021/10/07 12:28:25;;;;;;;2.83;2.63;;;31.00;70.80;;;;;;5022383;28;20210;-68
2021/10/07 12:30:56;;;;;;;3.00;2.80;;;31.90;66.60;;;;;;5020024;28;20425;-69
2021/10/07 12:33:25;;;;;;;3.30;2.50;;;33.20;62.10;;;;;;5022612;28;20450;-70
2021/10/07 12:36:04;;;;;;;2.50;2.30;;;32.60;61.50;;;;;;5021228;28;20478;-68
2021/10/07 12:38:55;;;;;;;2.70;2.50;;;32.50;60.00;;;;;;5025066;28;20443;-69
2021/10/07 12:41:40;;;;;;;3.07;2.83;;;33.60;58.90;;;;;;5003452;28;20446;-69
2021/10/07 12:44:07;;;;;;;3.40;3.10;;;33.10;57.50;;;;;;5022371;28;20538;-68
2021/10/07 12:46:45;;;;;;;3.37;3.03;;;31.70;58.60;;;;;;5024156;28;20844;-69
2021/10/07 12:49:11;;;;;;;3.93;3.00;;;31.00;59.00;;;;;;5004777;28;20821;-68
2021/10/07 12:51:44;;;;;;;3.63;2.93;;;29.90;61.60;;;;;;5020815;28;20461;-68
2021/10/07 12:54:15;;;;;;;3.30;3.00;;;29.10;64.20;;;;;;5024289;28;20180;-68